createdAt,value
2023-01-11T00:02:03.550Z,99730.03
2023-01-11T00:04:32.024Z,99709.09
2023-01-11T00:07:00.296Z,99623.97
2023-01-11T00:09:28.607Z,99659.72
2023-01-11T00:11:56.850Z,99746.97
2023-01-11T00:14:25.759Z,99700.44
2023-01-11T00:16:53.789Z,99722.78
2023-01-11T00:19:22.227Z,99744.00
2023-01-11T00:21:50.630Z,99748.13
2023-01-11T00:24:18.874Z,99717.00
2023-01-11T00:26:47.042Z,99708.97
2023-01-11T00:29:15.096Z,99751.00
2023-01-11T00:31:43.505Z,99754.66
2023-01-11T00:34:11.508Z,99710.44
2023-01-11T00:36:39.531Z,99756.13
2023-01-11T00:39:07.739Z,99717.22
2023-01-11T00:41:54.456Z,99769.84
2023-01-11T00:44:41.563Z,99768.16
2023-01-11T00:47:37.131Z,99772.56
2023-01-11T00:50:06.149Z,99728.22
2023-01-11T00:52:34.074Z,99779.94
2023-01-11T00:55:01.991Z,99776.88
2023-01-11T00:57:30.358Z,99787.63
2023-01-11T00:59:58.455Z,99780.59
2023-01-11T01:02:26.535Z,99738.06
2023-01-11T01:04:55.949Z,99765.47
2023-01-11T01:07:23.998Z,99741.97
2023-01-11T01:09:51.948Z,99735.44
2023-01-11T01:12:38.755Z,99784.41
2023-01-11T01:15:10.463Z,99786.28
2023-01-11T01:17:38.729Z,99777.00
2023-01-11T01:20:09.019Z,99770.91
2023-01-11T01:22:37.605Z,99782.25
2023-01-11T01:25:06.122Z,99786.81
2023-01-11T01:27:34.435Z,99768.88
2023-01-11T01:30:02.325Z,99734.34
2023-01-11T01:32:30.345Z,99783.31
2023-01-11T01:34:58.965Z,99788.28
2023-01-11T01:37:27.625Z,99783.22
2023-01-11T01:39:55.831Z,99773.44
2023-01-11T01:42:25.638Z,99781.56
2023-01-11T01:45:00.658Z,99790.31
2023-01-11T01:47:29.304Z,99785.25
2023-01-11T01:50:01.557Z,99784.41
2023-01-11T01:52:31.192Z,99788.72
2023-01-11T01:55:05.660Z,99737.97
2023-01-11T01:57:37.747Z,99738.81
2023-01-11T02:00:10.643Z,99786.72
2023-01-11T02:02:41.336Z,99798.09
2023-01-11T02:05:12.187Z,99786.72
2023-01-11T02:07:42.146Z,99779.97
2023-01-11T02:10:22.814Z,99746.19
2023-01-11T02:13:03.562Z,99800.53
2023-01-11T02:15:32.503Z,99793.69
2023-01-11T02:18:00.898Z,99768.44
2023-01-11T02:21:17.855Z,99802.63
2023-01-11T02:24:04.218Z,99791.28
2023-01-11T02:26:47.700Z,99757.38
2023-01-11T02:29:28.413Z,99795.91
2023-01-11T02:32:15.032Z,99763.06
2023-01-11T02:35:33.669Z,99805.06
2023-01-11T02:38:04.813Z,99814.03
2023-01-11T02:41:26.807Z,99812.53
2023-01-11T02:44:31.708Z,99771.06
2023-01-11T02:47:07.191Z,99817.41
2023-01-11T02:49:57.363Z,99798.66
2023-01-11T02:52:57.617Z,99791.56
2023-01-11T02:55:32.868Z,99733.81
2023-01-11T02:58:03.855Z,99762.81
2023-01-11T03:00:34.054Z,99751.19
2023-01-11T03:03:30.471Z,99817.47
2023-01-11T03:06:14.431Z,99755.63
2023-01-11T03:08:57.427Z,99814.53
2023-01-11T03:12:54.385Z,99821.28
2023-01-11T03:16:00.319Z,99810.97
2023-01-11T03:18:42.288Z,99818.56
2023-01-11T03:21:19.285Z,99822.91
2023-01-11T03:24:11.124Z,99824.25
2023-01-11T03:27:31.177Z,99830.16
2023-01-11T03:30:26.979Z,99841.34
2023-01-11T03:33:17.091Z,99828.72
2023-01-11T03:36:21.796Z,99835.78
2023-01-11T03:39:13.331Z,99841.72
2023-01-11T03:41:43.730Z,99839.91
2023-01-11T03:44:15.015Z,99848.78
2023-01-11T03:47:14.479Z,99838.22
2023-01-11T03:49:50.563Z,99800.31
2023-01-11T03:52:28.072Z,99781.81
2023-01-11T03:54:59.287Z,99806.34
2023-01-11T03:57:40.697Z,99792.38
2023-01-11T04:00:10.708Z,99838.63
2023-01-11T04:02:42.552Z,99793.13
2023-01-11T04:05:11.913Z,99830.81
2023-01-11T04:07:39.875Z,99836.09
2023-01-11T04:10:09.791Z,99835.97
2023-01-11T04:12:37.760Z,99823.31
2023-01-11T04:15:06.352Z,99829.13
2023-01-11T04:17:34.477Z,99817.94
2023-01-11T04:20:02.809Z,99833.06
2023-01-11T04:22:30.865Z,99670.19
2023-01-11T04:24:59.921Z,99813.00
2023-01-11T04:27:27.792Z,99821.66
2023-01-11T04:29:55.709Z,99822.63
2023-01-11T04:32:24.352Z,99812.72
2023-01-11T04:34:53.091Z,99807.34
2023-01-11T04:37:21.033Z,99770.19
2023-01-11T04:39:49.162Z,99811.66
2023-01-11T04:42:20.191Z,99819.66
2023-01-11T04:44:50.309Z,99813.84
2023-01-11T04:47:21.707Z,99814.06
2023-01-11T04:49:50.279Z,99820.69
2023-01-11T04:52:20.839Z,99835.69
2023-01-11T04:54:52.446Z,99821.66
2023-01-11T04:57:21.690Z,99823.25
2023-01-11T04:59:49.815Z,99817.03
2023-01-11T05:02:18.626Z,99768.06
2023-01-11T05:04:47.029Z,99801.59
2023-01-11T05:07:18.081Z,99815.25
2023-01-11T05:09:47.144Z,99806.56
2023-01-11T05:12:15.380Z,99767.91
2023-01-11T05:14:43.221Z,99812.88
2023-01-11T05:17:15.404Z,99827.97
2023-01-11T05:19:43.719Z,99784.78
2023-01-11T05:22:11.626Z,99790.47
2023-01-11T05:24:39.811Z,99783.97
2023-01-11T05:27:08.054Z,99834.72
2023-01-11T05:29:36.485Z,99835.88
2023-01-11T05:32:05.045Z,99838.31
2023-01-11T05:34:33.099Z,99837.16
2023-01-11T05:37:01.210Z,99827.97
2023-01-11T05:39:30.348Z,99819.63
2023-01-11T05:41:58.788Z,99828.53
2023-01-11T05:44:45.418Z,99796.31
2023-01-11T05:47:14.316Z,99830.09
2023-01-11T05:49:42.732Z,99841.59
2023-01-11T05:52:10.906Z,99841.78
2023-01-11T05:54:39.709Z,99840.75
2023-01-11T05:57:11.609Z,99820.81
2023-01-11T05:59:40.033Z,99826.19
2023-01-11T06:02:08.719Z,99848.56
2023-01-11T06:04:36.926Z,99846.03
2023-01-11T06:07:07.578Z,99833.59
2023-01-11T06:09:35.781Z,99842.88
2023-01-11T06:12:03.938Z,99815.41
2023-01-11T06:14:32.247Z,99808.44
2023-01-11T06:17:02.941Z,99841.72
2023-01-11T06:19:30.998Z,99853.81
2023-01-11T06:21:59.617Z,99809.91
2023-01-11T06:24:27.662Z,99856.25
2023-01-11T06:26:56.050Z,99845.38
2023-01-11T06:29:24.562Z,99857.09
2023-01-11T06:31:52.452Z,99867.44
2023-01-11T06:34:20.615Z,99864.63
2023-01-11T06:36:49.336Z,99864.31
2023-01-11T06:39:18.342Z,99859.78
2023-01-11T06:41:46.394Z,99817.53
2023-01-11T06:44:15.222Z,99861.47
2023-01-11T06:46:43.676Z,99857.25
2023-01-11T06:49:12.241Z,99855.97
2023-01-11T06:51:40.569Z,99807.84
2023-01-11T06:54:08.901Z,99858.94
2023-01-11T06:56:36.903Z,99869.47
2023-01-11T06:59:05.323Z,99863.06
2023-01-11T07:01:33.515Z,99845.84
2023-01-11T07:04:01.940Z,99855.31
2023-01-11T07:06:32.601Z,99849.97
2023-01-11T07:09:00.797Z,99850.06
2023-01-11T07:11:28.686Z,99860.41
2023-01-11T07:13:56.937Z,99856.72
2023-01-11T07:16:24.885Z,99821.44
2023-01-11T07:18:53.375Z,99822.31
2023-01-11T07:21:21.711Z,99843.53
2023-01-11T07:23:49.937Z,99861.78
2023-01-11T07:26:18.078Z,99862.69
2023-01-11T07:28:46.692Z,99868.09
2023-01-11T07:31:14.963Z,99825.75
2023-01-11T07:33:43.216Z,99876.22
2023-01-11T07:36:11.621Z,99869.53
2023-01-11T07:38:39.871Z,99870.50
2023-01-11T07:41:27.056Z,99853.41
2023-01-11T07:43:55.295Z,99868.59
2023-01-11T07:46:23.530Z,99870.59
2023-01-11T07:48:51.752Z,99865.06
2023-01-11T07:51:24.224Z,99839.00
2023-01-11T07:53:52.616Z,99871.31
2023-01-11T07:56:23.456Z,99818.38
2023-01-11T07:58:51.774Z,99869.47
2023-01-11T08:01:20.427Z,99877.59
2023-01-11T08:03:49.118Z,99829.59
2023-01-11T08:06:18.357Z,99868.38
2023-01-11T08:08:46.540Z,99869.53
2023-01-11T08:11:33.169Z,99868.66
2023-01-11T08:14:20.077Z,99787.84
2023-01-11T08:16:48.287Z,99871.94
2023-01-11T08:19:19.598Z,99821.81
2023-01-11T08:21:48.569Z,99832.69
2023-01-11T08:24:19.108Z,99854.47
2023-01-11T08:26:47.549Z,99867.44
2023-01-11T08:29:16.631Z,99868.06
2023-01-11T08:31:48.693Z,99863.66
2023-01-11T08:34:17.575Z,99858.50
2023-01-11T08:36:45.862Z,99858.06
2023-01-11T08:39:13.930Z,99861.16
2023-01-11T08:41:42.345Z,99852.59
2023-01-11T08:44:14.703Z,99837.31
2023-01-11T08:46:43.889Z,99836.78
2023-01-11T08:49:12.563Z,99829.13
2023-01-11T08:51:41.701Z,99848.63
2023-01-11T08:54:17.893Z,99837.69
2023-01-11T08:56:46.073Z,99845.69
2023-01-11T08:59:14.704Z,99780.97
2023-01-11T09:01:43.529Z,99837.78
2023-01-11T09:04:23.844Z,99825.16
2023-01-11T09:06:55.198Z,99732.91
2023-01-11T09:09:24.120Z,99829.38
2023-01-11T09:11:55.147Z,99824.97
2023-01-11T09:14:26.329Z,99818.31
2023-01-11T09:16:55.364Z,99829.91
2023-01-11T09:19:24.228Z,99838.56
2023-01-11T09:21:52.504Z,99792.88
2023-01-11T09:24:20.464Z,99793.31
2023-01-11T09:26:51.004Z,99830.88
2023-01-11T09:29:19.994Z,99787.06
2023-01-11T09:31:48.172Z,99836.25
2023-01-11T09:34:16.998Z,99821.91
2023-01-11T09:36:47.917Z,99831.69
2023-01-11T09:39:18.916Z,99753.63
2023-01-11T09:41:51.429Z,99836.16
2023-01-11T09:44:25.616Z,99702.25
2023-01-11T09:47:10.970Z,99832.69
2023-01-11T09:49:43.144Z,99782.34
2023-01-11T09:52:39.957Z,99823.19
2023-01-11T09:55:20.355Z,99770.53
2023-01-11T09:58:03.485Z,99785.09
2023-01-11T10:01:12.556Z,99817.50
2023-01-11T10:04:16.653Z,99810.53
2023-01-11T10:07:16.590Z,99823.09
2023-01-11T10:18:40.288Z,99830.06
2023-01-11T10:19:40.665Z,99772.00
2023-01-11T10:22:23.640Z,99818.00
2023-01-11T10:25:17.589Z,99821.03
2023-01-11T10:28:00.842Z,99764.69
2023-01-11T10:31:10.650Z,99767.69
2023-01-11T10:34:10.689Z,99807.69
2023-01-11T10:37:11.320Z,99750.16
2023-01-11T10:40:13.262Z,99804.59
2023-01-11T10:43:22.657Z,99795.78
2023-01-11T10:46:26.924Z,99752.81
2023-01-11T10:49:29.596Z,99789.22
2023-01-11T10:52:14.147Z,99784.56
2023-01-11T10:54:46.920Z,99734.88
2023-01-11T10:57:59.722Z,99742.38
2023-01-11T11:00:39.812Z,99790.38
2023-01-11T11:03:54.625Z,99786.69
2023-01-11T11:06:51.637Z,99774.97
2023-01-11T11:09:40.718Z,99772.03
2023-01-11T11:12:32.531Z,99725.50
2023-01-11T11:15:13.990Z,99770.25
2023-01-11T11:17:51.061Z,99705.56
2023-01-11T11:20:29.099Z,99751.66
2023-01-11T11:22:57.866Z,99745.22
2023-01-11T11:25:38.821Z,99753.47
2023-01-11T11:28:27.489Z,99752.38
2023-01-11T11:31:00.225Z,99747.22
2023-01-11T11:33:39.343Z,99746.47
2023-01-11T11:36:11.894Z,99733.00
2023-01-11T11:39:28.716Z,99727.50
2023-01-11T11:42:27.678Z,99732.44
2023-01-11T11:45:11.241Z,99746.47
2023-01-11T11:47:39.418Z,99733.41
2023-01-11T11:50:41.941Z,99748.78
2023-01-11T11:53:08.589Z,99735.00
2023-01-11T11:55:36.891Z,99741.03
2023-01-11T11:58:13.377Z,99743.72
2023-01-11T12:00:51.375Z,99711.38
2023-01-11T12:03:30.727Z,99720.97
2023-01-11T12:06:04.294Z,99679.41
2023-01-11T12:08:36.427Z,99706.28
2023-01-11T12:11:07.958Z,99668.13
2023-01-11T12:13:40.762Z,99662.31
2023-01-11T12:16:23.084Z,99709.22
2023-01-11T12:18:51.541Z,99709.78
2023-01-11T12:21:21.734Z,99710.19
2023-01-11T12:24:23.859Z,99716.31
2023-01-11T12:27:14.121Z,99717.47
2023-01-11T12:29:48.439Z,99680.59
2023-01-11T12:32:48.135Z,99712.19
2023-01-11T12:35:19.524Z,99693.09
2023-01-11T12:38:10.991Z,99683.28
2023-01-11T12:40:48.158Z,99689.88
2023-01-11T12:44:01.442Z,99699.81
2023-01-11T12:46:59.678Z,99675.56
2023-01-11T12:49:43.103Z,99660.06
2023-01-11T12:52:37.101Z,99676.41
2023-01-11T12:55:28.234Z,99690.44
2023-01-11T12:58:53.429Z,99681.34
2023-01-11T13:02:17.870Z,99684.53
2023-01-11T13:05:55.720Z,99686.53
2023-01-11T13:09:06.313Z,99687.16
2023-01-11T13:12:25.333Z,99676.50
2023-01-11T13:15:28.219Z,99672.50
2023-01-11T13:18:31.984Z,99678.50
2023-01-11T13:21:34.581Z,99679.75
2023-01-11T13:24:16.351Z,99623.72
2023-01-11T13:26:50.847Z,99659.03
2023-01-11T13:29:32.898Z,99632.97
2023-01-11T13:32:07.105Z,99669.75
2023-01-11T13:35:18.941Z,99678.91
2023-01-11T13:37:58.978Z,99629.09
2023-01-11T13:40:44.167Z,99674.06
2023-01-11T13:43:22.852Z,99688.84
2023-01-11T13:46:00.311Z,99659.94
2023-01-11T13:48:56.535Z,99671.97
2023-01-11T13:51:54.767Z,99628.66
2023-01-11T13:54:41.996Z,99675.31
2023-01-11T13:57:56.235Z,99673.63
2023-01-11T14:01:08.873Z,99612.50
2023-01-11T14:03:43.153Z,99646.53
2023-01-11T14:06:40.380Z,99654.75
2023-01-11T14:09:54.665Z,99655.31
2023-01-11T14:12:57.493Z,99662.69
2023-01-11T14:15:41.929Z,99611.91
2023-01-11T14:18:50.151Z,99647.63
2023-01-11T14:21:54.878Z,99655.84
2023-01-11T14:24:26.377Z,99623.28
2023-01-11T14:27:28.303Z,99668.63
2023-01-11T14:30:31.350Z,99640.81
2023-01-11T14:33:25.802Z,99671.16
2023-01-11T14:36:14.257Z,99666.53
2023-01-11T14:39:05.756Z,99662.72
2023-01-11T14:41:55.568Z,99685.81
2023-01-11T14:44:43.312Z,99664.63
2023-01-11T14:47:46.084Z,99659.56
2023-01-11T14:50:53.668Z,99666.97
2023-01-11T14:53:30.573Z,99656.41
2023-01-11T14:55:58.997Z,99654.94
2023-01-11T14:58:31.056Z,99650.09
2023-01-11T15:00:59.176Z,99658.19
2023-01-11T15:03:49.516Z,99655.66
2023-01-11T15:06:21.511Z,99589.59
2023-01-11T15:08:55.369Z,99650.50
2023-01-11T15:11:25.324Z,99647.75
2023-01-11T15:14:18.422Z,99642.72
2023-01-11T15:17:15.508Z,99633.31
2023-01-11T15:19:45.795Z,99644.81
2023-01-11T15:22:34.940Z,99629.34
2023-01-11T15:25:08.860Z,99577.91
2023-01-11T15:27:40.461Z,99575.28
2023-01-11T15:30:32.053Z,99629.34
2023-01-11T15:33:19.342Z,99631.13
2023-01-11T15:35:57.137Z,99627.00
2023-01-11T15:38:50.957Z,99611.31
2023-01-11T15:42:06.585Z,99612.47
2023-01-11T15:45:08.728Z,99606.78
2023-01-11T15:47:41.082Z,99606.03
2023-01-11T15:50:59.267Z,99615.75
2023-01-11T15:53:58.196Z,99607.97
2023-01-11T15:57:16.468Z,99612.16
2023-01-11T16:00:30.979Z,99620.28
2023-01-11T16:03:51.576Z,99605.63
2023-01-11T16:06:54.141Z,99620.06
2023-01-11T16:09:50.550Z,99611.00
2023-01-11T16:12:56.259Z,99619.03
2023-01-11T16:16:00.441Z,99601.44
2023-01-11T16:18:37.641Z,99546.22
2023-01-11T16:21:38.994Z,99590.44
2023-01-11T16:24:20.796Z,99525.59
2023-01-11T16:26:58.961Z,99555.50
2023-01-11T16:29:32.552Z,99537.69
2023-01-11T16:32:08.075Z,99582.13
2023-01-11T16:34:47.179Z,99568.78
2023-01-11T16:37:34.043Z,99585.09
2023-01-11T16:40:19.466Z,99528.84
2023-01-11T16:43:18.870Z,99572.84
2023-01-11T16:45:55.154Z,99572.13
2023-01-11T16:48:24.531Z,99586.25
2023-01-11T16:51:22.929Z,99563.16
2023-01-11T16:53:59.438Z,99536.63
2023-01-11T16:56:28.845Z,99567.28
2023-01-11T16:59:15.436Z,99569.28
2023-01-11T17:02:05.211Z,99553.78
2023-01-11T17:04:54.548Z,99557.38
2023-01-11T17:07:28.435Z,99564.44
2023-01-11T17:10:30.204Z,99558.13
2023-01-11T17:14:04.620Z,99560.94
2023-01-11T17:16:46.114Z,99536.94
2023-01-11T17:19:29.500Z,99542.84
2023-01-11T17:22:27.918Z,99518.50
2023-01-11T17:25:22.151Z,99517.56
2023-01-11T17:28:07.060Z,99558.31
2023-01-11T17:30:37.675Z,99453.13
2023-01-11T17:33:05.943Z,99537.06
2023-01-11T17:35:41.633Z,99543.03
2023-01-11T17:38:14.920Z,99501.66
2023-01-11T17:40:46.356Z,99514.41
2023-01-11T17:43:44.879Z,99528.06
2023-01-11T17:46:27.260Z,99550.63
2023-01-11T17:49:00.893Z,99537.97
2023-01-11T17:51:35.131Z,99554.41
2023-01-11T17:54:03.764Z,99493.69
2023-01-11T17:56:42.732Z,99544.44
2023-01-11T17:59:24.548Z,99542.53
2023-01-11T18:02:00.389Z,99541.56
2023-01-11T18:04:31.537Z,99489.44
2023-01-11T18:07:20.095Z,99540.31
2023-01-11T18:09:57.339Z,99521.91
2023-01-11T18:12:35.503Z,99521.81
2023-01-11T18:15:07.669Z,99525.97
2023-01-11T18:17:42.397Z,99508.72
2023-01-11T18:20:37.994Z,99499.78
2023-01-11T18:23:12.440Z,99513.13
2023-01-11T18:25:40.735Z,99522.22
2023-01-11T18:28:27.472Z,99522.00
2023-01-11T18:31:02.147Z,99519.75
2023-01-11T18:33:34.597Z,99517.69
2023-01-11T18:36:18.727Z,99468.72
2023-01-11T18:38:47.732Z,99505.75
2023-01-11T18:41:36.234Z,99462.56
2023-01-11T18:44:05.551Z,99523.03
2023-01-11T18:46:34.338Z,99509.00
2023-01-11T18:49:03.269Z,99506.25
2023-01-11T18:51:42.191Z,99501.56
2023-01-11T18:54:20.388Z,99513.16
2023-01-11T18:56:49.519Z,99507.25
2023-01-11T18:59:17.973Z,99512.28
2023-01-11T19:01:56.536Z,99490.28
2023-01-11T19:04:31.765Z,99510.94
2023-01-11T19:07:01.347Z,99491.66
2023-01-11T19:09:30.799Z,99510.19
2023-01-11T19:11:59.511Z,99513.47
2023-01-11T19:14:32.038Z,99511.25
2023-01-11T19:17:01.563Z,99487.47
2023-01-11T19:19:31.665Z,99508.41
2023-01-11T19:22:03.013Z,99436.69
2023-01-11T19:24:32.916Z,99507.06
2023-01-11T19:27:01.595Z,99499.16
2023-01-11T19:29:31.311Z,99488.09
2023-01-11T19:32:00.348Z,99507.75
2023-01-11T19:34:29.770Z,99499.97
2023-01-11T19:36:58.333Z,99512.63
2023-01-11T19:39:27.952Z,99460.50
2023-01-11T19:42:01.702Z,99500.72
2023-01-11T19:44:35.357Z,99466.94
2023-01-11T19:47:12.054Z,99464.50
2023-01-11T19:49:42.695Z,99510.31
2023-01-11T19:52:13.855Z,99481.56
2023-01-11T19:54:43.425Z,99501.91
2023-01-11T19:57:14.883Z,99466.50
2023-01-11T19:59:43.320Z,99513.03
2023-01-11T20:02:18.028Z,99466.50
2023-01-11T20:04:47.581Z,99514.22
2023-01-11T20:07:16.456Z,99509.47
2023-01-11T20:09:45.293Z,99432.91
2023-01-11T20:12:16.241Z,99517.03
2023-01-11T20:14:46.823Z,99505.34
2023-01-11T20:17:21.363Z,99462.16
2023-01-11T20:19:54.923Z,99504.41
2023-01-11T20:22:24.339Z,99518.94
2023-01-11T20:24:53.005Z,99421.56
2023-01-11T20:27:21.945Z,99511.66
2023-01-11T20:29:50.257Z,99513.88
2023-01-11T20:32:39.891Z,99463.44
2023-01-11T20:35:08.863Z,99466.41
2023-01-11T20:37:37.646Z,99503.69
2023-01-11T20:40:07.201Z,99469.56
2023-01-11T20:42:37.358Z,99458.41
2023-01-11T20:45:07.067Z,99500.50
2023-01-11T20:47:35.658Z,99348.81
2023-01-11T20:50:04.774Z,99489.56
2023-01-11T20:52:33.743Z,99502.59
2023-01-11T20:55:02.493Z,99465.97
2023-01-11T20:57:31.173Z,99479.88
2023-01-11T20:59:59.773Z,99494.31
2023-01-11T21:02:28.401Z,99497.88
2023-01-11T21:04:57.641Z,99456.28
2023-01-11T21:07:26.234Z,99484.41
2023-01-11T21:09:54.640Z,99492.81
2023-01-11T21:12:23.619Z,99457.78
2023-01-11T21:14:52.075Z,99445.56
2023-01-11T21:17:21.219Z,99483.47
2023-01-11T21:19:51.110Z,99487.66
2023-01-11T21:22:20.040Z,99478.50
2023-01-11T21:24:48.620Z,99473.69
2023-01-11T21:27:17.304Z,99485.38
2023-01-11T21:29:46.002Z,99486.28
2023-01-11T21:32:14.548Z,99474.31
2023-01-11T21:34:43.182Z,99487.47
2023-01-11T21:37:11.876Z,99487.25
2023-01-11T21:39:40.081Z,99483.47
2023-01-11T21:42:09.809Z,99481.66
2023-01-11T21:44:38.596Z,99490.50
2023-01-11T21:47:08.891Z,99475.44
2023-01-11T21:49:37.363Z,99485.53
2023-01-11T21:52:05.410Z,99441.97
2023-01-11T21:54:33.682Z,99477.56
2023-01-11T21:57:02.090Z,99478.38
2023-01-11T21:59:33.703Z,99464.72
2023-01-11T22:02:02.351Z,99452.72
2023-01-11T22:04:30.723Z,99455.88
2023-01-11T22:07:00.230Z,99449.88
2023-01-11T22:09:29.295Z,99413.75
2023-01-11T22:11:58.663Z,99408.50
2023-01-11T22:14:27.214Z,99454.63
2023-01-11T22:16:56.681Z,99456.28
2023-01-11T22:19:25.227Z,99460.94
2023-01-11T22:21:53.331Z,99445.88
2023-01-11T22:24:22.646Z,99448.19
2023-01-11T22:26:51.189Z,99388.09
2023-01-11T22:29:20.256Z,99441.47
2023-01-11T22:32:01.388Z,99436.59
2023-01-11T22:34:29.690Z,99441.56
2023-01-11T22:36:58.593Z,99446.63
2023-01-11T22:39:29.947Z,99422.28
2023-01-11T22:41:58.624Z,99452.28
2023-01-11T22:44:27.118Z,99399.03
2023-01-11T22:46:55.648Z,99453.13
2023-01-11T22:49:24.088Z,99433.03
2023-01-11T22:51:52.245Z,99402.50
2023-01-11T22:54:20.835Z,99410.38
2023-01-11T22:56:49.484Z,99440.50
2023-01-11T22:59:17.675Z,99436.31
2023-01-11T23:01:46.134Z,99439.78
2023-01-11T23:04:14.822Z,99397.66
2023-01-11T23:06:43.645Z,99423.53
2023-01-11T23:09:16.842Z,99441.75
2023-01-11T23:12:04.338Z,99436.50
2023-01-11T23:14:33.919Z,99388.94
2023-01-11T23:17:07.834Z,99439.00
2023-01-11T23:19:39.270Z,99456.63
2023-01-11T23:22:09.475Z,99448.31
2023-01-11T23:24:38.063Z,99453.88
2023-01-11T23:27:06.860Z,99375.16
2023-01-11T23:29:36.052Z,99440.41
2023-01-11T23:32:04.509Z,99454.81
2023-01-11T23:34:33.031Z,99442.59
2023-01-11T23:37:01.099Z,99414.19
2023-01-11T23:39:29.520Z,99440.72
2023-01-11T23:42:15.985Z,99434.09
2023-01-11T23:44:43.990Z,99433.03
2023-01-11T23:47:22.388Z,99402.59
2023-01-11T23:49:53.273Z,99373.13
2023-01-11T23:52:26.434Z,99387.47
2023-01-11T23:54:55.053Z,99425.34
2023-01-11T23:57:25.957Z,99386.00
2023-01-11T23:59:54.150Z,99417.88
